createdAt,value
2022-08-07T00:01:44.040Z,2.35
2022-08-07T00:04:15.624Z,2.00
2022-08-07T00:06:51.743Z,2.47
2022-08-07T00:09:26.631Z,2.22
2022-08-07T00:12:01.479Z,2.42
2022-08-07T00:14:31.795Z,2.10
2022-08-07T00:17:02.918Z,2.35
2022-08-07T00:19:59.859Z,2.15
2022-08-07T00:22:24.917Z,2.42
2022-08-07T00:25:06.909Z,1.98
2022-08-07T00:27:51.837Z,2.60
2022-08-07T00:30:27.975Z,2.45
2022-08-07T00:33:01.191Z,2.20
2022-08-07T00:35:31.438Z,2.20
2022-08-07T00:38:03.605Z,2.88
2022-08-07T00:40:40.150Z,2.72
2022-08-07T00:43:59.373Z,2.13
2022-08-07T00:46:02.364Z,2.28
2022-08-07T00:48:32.629Z,2.40
2022-08-07T00:51:03.513Z,2.35
2022-08-07T00:53:39.046Z,2.30
2022-08-07T00:56:19.602Z,2.40
2022-08-07T00:58:50.015Z,2.20
2022-08-07T01:01:19.809Z,2.25
2022-08-07T01:03:56.941Z,2.05
2022-08-07T01:06:30.379Z,2.30
2022-08-07T01:09:01.063Z,2.45
2022-08-07T01:12:09.982Z,2.08
2022-08-07T01:14:28.279Z,2.30
2022-08-07T01:16:57.398Z,2.35
2022-08-07T01:19:27.829Z,2.92
2022-08-07T01:22:03.171Z,2.35
2022-08-07T01:24:32.055Z,2.45
2022-08-07T01:27:01.840Z,2.30
2022-08-07T01:29:34.177Z,2.35
2022-08-07T01:32:05.468Z,2.80
2022-08-07T01:34:34.962Z,2.20
2022-08-07T01:37:03.507Z,2.30
2022-08-07T01:39:39.682Z,2.45
2022-08-07T01:42:38.291Z,2.38
2022-08-07T01:45:09.674Z,2.00
2022-08-07T01:48:18.555Z,2.83
2022-08-07T01:50:34.589Z,2.30
2022-08-07T01:53:08.808Z,2.45
2022-08-07T01:55:59.760Z,2.50
2022-08-07T01:58:33.852Z,2.33
2022-08-07T02:01:44.808Z,2.30
2022-08-07T02:04:17.425Z,2.20
2022-08-07T02:06:47.285Z,2.50
2022-08-07T02:09:51.854Z,2.10
2022-08-07T02:12:18.180Z,2.53
2022-08-07T02:14:51.426Z,2.50
2022-08-07T02:17:27.733Z,2.38
2022-08-07T02:20:07.455Z,2.33
2022-08-07T02:22:43.733Z,2.40
2022-08-07T02:25:18.128Z,2.47
2022-08-07T02:27:51.959Z,2.33
2022-08-07T02:30:21.991Z,2.50
2022-08-07T02:33:03.618Z,2.70
2022-08-07T02:36:28.872Z,2.78
2022-08-07T02:38:31.661Z,2.50
2022-08-07T02:41:03.831Z,2.63
2022-08-07T02:43:34.095Z,2.40
2022-08-07T02:46:05.921Z,2.63
2022-08-07T02:48:34.687Z,2.70
2022-08-07T02:51:28.876Z,2.33
2022-08-07T02:54:04.090Z,2.60
2022-08-07T02:56:34.240Z,2.38
2022-08-07T02:59:07.440Z,2.63
2022-08-07T03:01:40.237Z,2.60
2022-08-07T03:04:12.661Z,2.30
2022-08-07T03:06:46.206Z,2.80
2022-08-07T03:09:43.838Z,2.60
2022-08-07T03:12:16.141Z,2.15
2022-08-07T03:14:52.842Z,2.50
2022-08-07T03:17:22.188Z,2.70
2022-08-07T03:19:54.830Z,2.10
2022-08-07T03:22:29.651Z,2.40
2022-08-07T03:25:00.961Z,2.78
2022-08-07T03:27:58.779Z,2.22
2022-08-07T03:30:19.440Z,2.40
2022-08-07T03:32:58.396Z,2.92
2022-08-07T03:35:43.926Z,2.65
2022-08-07T03:38:21.213Z,2.42
2022-08-07T03:40:57.326Z,2.40
2022-08-07T03:43:32.362Z,2.20
2022-08-07T03:46:04.250Z,2.58
2022-08-07T03:49:02.929Z,2.22
2022-08-07T03:51:47.125Z,2.30
2022-08-07T03:54:35.713Z,2.50
2022-08-07T03:57:07.363Z,3.25
2022-08-07T03:59:36.408Z,2.30
2022-08-07T04:02:16.160Z,2.28
2022-08-07T04:04:46.001Z,2.50
2022-08-07T04:07:17.510Z,2.58
2022-08-07T04:09:50.278Z,2.60
2022-08-07T04:12:27.462Z,2.13
2022-08-07T04:15:00.325Z,2.60
2022-08-07T04:17:31.066Z,2.35
2022-08-07T04:20:18.281Z,2.40
2022-08-07T04:22:53.671Z,2.92
2022-08-07T04:25:31.667Z,2.22
2022-08-07T04:28:09.441Z,2.80
2022-08-07T04:30:55.545Z,2.83
2022-08-07T04:33:27.862Z,2.45
2022-08-07T04:35:57.041Z,2.28
2022-08-07T04:38:27.855Z,2.47
2022-08-07T04:40:57.111Z,2.45
2022-08-07T04:44:13.091Z,2.20
2022-08-07T04:46:59.677Z,2.38
2022-08-07T04:50:03.692Z,2.65
2022-08-07T04:53:09.150Z,2.88
2022-08-07T04:58:10.890Z,2.72
2022-08-07T05:02:16.706Z,2.55
2022-08-07T05:05:11.931Z,3.22
2022-08-07T05:08:07.555Z,3.00
2022-08-07T05:10:48.345Z,3.00
2022-08-07T05:14:56.259Z,2.92
2022-08-07T05:16:34.166Z,3.70
2022-08-07T05:19:16.965Z,5.10
2022-08-07T05:21:59.520Z,4.80
2022-08-07T05:24:39.411Z,3.00
2022-08-07T05:28:01.821Z,2.90
2022-08-07T05:30:01.643Z,2.67
2022-08-07T05:32:30.935Z,2.75
2022-08-07T05:35:00.401Z,2.85
2022-08-07T05:37:32.405Z,2.65
2022-08-07T05:40:18.662Z,2.55
2022-08-07T05:42:56.339Z,2.60
2022-08-07T05:45:47.500Z,2.92
2022-08-07T05:48:16.593Z,2.60
2022-08-07T05:50:46.140Z,2.55
2022-08-07T05:54:14.044Z,2.67
2022-08-07T05:56:05.819Z,2.90
2022-08-07T05:58:37.385Z,3.28
2022-08-07T06:01:10.958Z,2.70
2022-08-07T06:03:53.167Z,2.53
2022-08-07T06:06:29.554Z,2.70
2022-08-07T06:09:04.603Z,2.63
2022-08-07T06:11:35.195Z,2.67
2022-08-07T06:14:12.538Z,3.00
2022-08-07T06:16:50.765Z,2.80
2022-08-07T06:19:57.496Z,2.70
2022-08-07T06:22:24.170Z,2.55
2022-08-07T06:24:57.892Z,2.83
2022-08-07T06:28:00.457Z,2.80
2022-08-07T06:30:32.196Z,3.38
2022-08-07T06:33:05.365Z,2.40
2022-08-07T06:35:47.722Z,2.55
2022-08-07T06:38:30.305Z,2.80
2022-08-07T06:41:01.585Z,2.50
2022-08-07T06:43:39.757Z,2.72
2022-08-07T06:46:12.171Z,2.75
2022-08-07T06:48:44.482Z,2.95
2022-08-07T06:51:31.333Z,2.70
2022-08-07T06:55:28.648Z,2.72
2022-08-07T06:56:57.526Z,2.67
2022-08-07T07:00:11.708Z,2.80
2022-08-07T07:02:48.123Z,2.90
2022-08-07T07:05:13.073Z,2.80
2022-08-07T07:07:59.981Z,2.58
2022-08-07T07:10:34.481Z,2.95
2022-08-07T07:13:17.195Z,2.95
2022-08-07T07:16:12.950Z,2.50
2022-08-07T07:18:51.761Z,2.72
2022-08-07T07:21:40.540Z,2.65
2022-08-07T07:24:19.901Z,2.78
2022-08-07T07:26:51.840Z,2.92
2022-08-07T07:29:39.209Z,2.60
2022-08-07T07:32:15.676Z,2.92
2022-08-07T07:34:49.125Z,2.70
2022-08-07T07:37:21.864Z,2.67
2022-08-07T07:40:17.794Z,3.15
2022-08-07T07:42:51.342Z,2.45
2022-08-07T07:46:37.854Z,3.00
2022-08-07T07:48:34.753Z,2.67
2022-08-07T07:51:07.982Z,3.65
2022-08-07T07:53:52.000Z,2.78
2022-08-07T07:56:30.629Z,2.47
2022-08-07T07:59:06.956Z,2.35
2022-08-07T08:02:02.947Z,2.63
2022-08-07T08:04:33.301Z,2.65
2022-08-07T08:07:07.554Z,3.05
2022-08-07T08:09:52.577Z,2.53
2022-08-07T08:12:52.562Z,3.03
2022-08-07T08:15:16.013Z,2.70
2022-08-07T08:17:57.969Z,2.40
2022-08-07T08:20:32.042Z,2.92
2022-08-07T08:23:20.678Z,2.77
2022-08-07T08:26:11.123Z,2.67
2022-08-07T08:28:45.021Z,2.50
2022-08-07T08:31:30.073Z,2.70
2022-08-07T08:34:26.763Z,2.60
2022-08-07T08:36:58.736Z,2.35
2022-08-07T08:39:39.030Z,2.70
2022-08-07T08:42:28.147Z,2.55
2022-08-07T08:45:15.368Z,2.60
2022-08-07T08:48:06.001Z,2.88
2022-08-07T08:51:29.646Z,2.70
2022-08-07T08:54:16.205Z,3.10
2022-08-07T08:56:51.120Z,2.72
2022-08-07T08:59:29.840Z,2.88
2022-08-07T09:02:35.246Z,2.70
2022-08-07T09:05:31.907Z,2.75
2022-08-07T09:08:17.820Z,2.60
2022-08-07T09:11:08.192Z,2.58
2022-08-07T09:14:20.880Z,2.80
2022-08-07T09:17:33.827Z,2.35
2022-08-07T09:20:35.422Z,2.05
2022-08-07T09:24:31.055Z,2.90
2022-08-07T09:26:29.520Z,2.50
2022-08-07T09:30:01.730Z,2.83
2022-08-07T09:32:38.000Z,2.80
2022-08-07T09:36:04.273Z,2.80
2022-08-07T09:38:27.287Z,3.17
2022-08-07T09:41:36.458Z,3.03
2022-08-07T09:44:32.868Z,2.83
2022-08-07T09:48:00.163Z,2.90
2022-08-07T09:51:02.167Z,3.20
2022-08-07T09:53:40.854Z,2.70
2022-08-07T09:59:29.449Z,3.00
2022-08-07T10:02:55.295Z,3.03
2022-08-07T10:06:04.448Z,2.70
2022-08-07T10:09:01.961Z,3.33
2022-08-07T10:12:00.374Z,2.95
2022-08-07T10:14:59.990Z,2.65
2022-08-07T10:18:01.874Z,2.45
2022-08-07T10:21:00.085Z,2.80
2022-08-07T10:24:06.734Z,2.80
2022-08-07T10:26:53.182Z,2.70
2022-08-07T10:32:52.911Z,2.63
2022-08-07T10:35:53.325Z,3.22
2022-08-07T10:38:42.095Z,2.80
2022-08-07T10:41:46.819Z,3.08
2022-08-07T10:44:37.618Z,2.80
2022-08-07T10:47:14.727Z,2.65
2022-08-07T10:49:51.982Z,2.47
2022-08-07T10:52:31.772Z,2.60
2022-08-07T10:55:26.836Z,2.95
2022-08-07T10:58:18.006Z,2.67
2022-08-07T11:01:35.232Z,3.55
2022-08-07T11:04:51.279Z,2.67
2022-08-07T11:07:56.157Z,3.05
2022-08-07T11:10:27.490Z,3.30
2022-08-07T11:14:45.195Z,3.05
2022-08-07T11:16:30.639Z,3.15
2022-08-07T11:22:32.196Z,2.90
2022-08-07T11:25:19.770Z,2.80
2022-08-07T11:28:15.474Z,2.70
2022-08-07T11:30:53.840Z,3.17
2022-08-07T11:34:00.586Z,2.85
2022-08-07T11:36:38.796Z,3.28
2022-08-07T11:39:19.791Z,3.25
2022-08-07T11:42:30.255Z,2.80
2022-08-07T11:45:12.391Z,3.10
2022-08-07T11:47:59.399Z,2.95
2022-08-07T11:51:00.838Z,3.30
2022-08-07T11:53:43.342Z,3.03
2022-08-07T11:56:56.348Z,3.10
2022-08-07T12:00:11.750Z,3.33
2022-08-07T12:02:31.089Z,3.08
2022-08-07T12:05:28.951Z,3.30
2022-08-07T12:08:31.797Z,3.15
2022-08-07T12:11:23.261Z,3.17
2022-08-07T12:14:23.284Z,3.03
2022-08-07T12:17:04.785Z,3.30
2022-08-07T12:20:05.554Z,3.33
2022-08-07T12:23:21.616Z,3.28
2022-08-07T12:26:23.045Z,3.38
2022-08-07T12:28:56.735Z,3.20
2022-08-07T12:32:04.155Z,3.28
2022-08-07T12:34:40.879Z,3.20
2022-08-07T12:37:16.529Z,3.10
2022-08-07T12:39:50.949Z,3.20
2022-08-07T12:45:05.570Z,3.15
2022-08-07T12:48:27.666Z,3.45
2022-08-07T12:51:17.172Z,3.00
2022-08-07T12:54:38.659Z,3.10
2022-08-07T12:57:09.585Z,3.10
2022-08-07T12:59:53.801Z,2.70
2022-08-07T13:03:07.099Z,3.70
2022-08-07T13:06:04.894Z,3.20
2022-08-07T13:08:57.365Z,3.40
2022-08-07T13:11:31.734Z,3.10
2022-08-07T13:14:23.225Z,3.30
2022-08-07T13:17:06.717Z,3.40
2022-08-07T13:19:56.715Z,3.58
2022-08-07T13:22:33.564Z,3.70
2022-08-07T13:25:15.420Z,3.40
2022-08-07T13:28:20.441Z,3.47
2022-08-07T13:31:54.934Z,3.50
2022-08-07T13:35:08.823Z,3.30
2022-08-07T13:38:04.485Z,3.10
2022-08-07T13:40:47.296Z,3.22
2022-08-07T13:46:11.577Z,3.20
2022-08-07T13:48:51.997Z,3.28
2022-08-07T13:52:04.852Z,2.95
2022-08-07T13:54:23.840Z,2.65
2022-08-07T13:56:59.608Z,2.85
2022-08-07T13:59:34.000Z,2.80
2022-08-07T14:02:14.074Z,2.78
2022-08-07T14:04:54.406Z,2.92
2022-08-07T14:07:28.746Z,2.47
2022-08-07T14:10:17.483Z,2.80
2022-08-07T14:13:03.910Z,2.95
2022-08-07T14:15:52.094Z,3.00
2022-08-07T14:18:39.647Z,2.85
2022-08-07T14:21:20.665Z,3.15
2022-08-07T14:24:02.073Z,3.42
2022-08-07T14:26:38.998Z,2.72
2022-08-07T14:30:05.395Z,2.70
2022-08-07T14:32:06.325Z,2.88
2022-08-07T14:34:45.813Z,3.08
2022-08-07T14:37:17.847Z,3.13
2022-08-07T14:40:17.797Z,3.10
2022-08-07T14:43:00.896Z,2.90
2022-08-07T14:45:46.657Z,3.03
2022-08-07T14:48:27.467Z,3.72
2022-08-07T14:51:00.121Z,3.35
2022-08-07T14:54:05.932Z,3.35
2022-08-07T14:56:32.825Z,3.15
2022-08-07T14:59:13.772Z,3.90
2022-08-07T15:02:01.856Z,3.50
2022-08-07T15:04:31.387Z,3.70
2022-08-07T15:07:02.111Z,3.83
2022-08-07T15:12:42.295Z,3.53
2022-08-07T15:15:21.233Z,3.92
2022-08-07T15:18:02.797Z,3.92
2022-08-07T15:20:55.050Z,4.38
2022-08-07T15:26:28.952Z,3.63
2022-08-07T15:30:09.323Z,4.18
2022-08-07T15:32:01.112Z,4.00
2022-08-07T15:34:50.819Z,3.72
2022-08-07T15:38:04.714Z,4.20
2022-08-07T15:40:34.304Z,4.50
2022-08-07T15:43:33.541Z,3.80
2022-08-07T15:46:38.469Z,3.65
2022-08-07T15:49:14.508Z,4.00
2022-08-07T15:54:45.523Z,3.88
2022-08-07T15:57:39.434Z,4.03
2022-08-07T16:00:31.804Z,3.83
2022-08-07T16:03:02.642Z,3.92
2022-08-07T16:05:32.555Z,3.50
2022-08-07T16:08:38.229Z,4.22
2022-08-07T16:11:26.750Z,4.07
2022-08-07T16:14:27.882Z,3.45
2022-08-07T16:18:01.840Z,3.67
2022-08-07T16:20:33.676Z,3.45
2022-08-07T16:23:25.143Z,3.22
2022-08-07T16:26:14.375Z,3.03
2022-08-07T16:30:08.698Z,3.50
2022-08-07T16:32:33.257Z,3.67
2022-08-07T16:35:51.821Z,4.28
2022-08-07T16:38:44.408Z,3.35
2022-08-07T16:41:41.721Z,3.85
2022-08-07T16:44:46.967Z,3.72
2022-08-07T16:47:51.171Z,3.42
2022-08-07T16:51:20.909Z,3.35
2022-08-07T16:54:03.108Z,3.50
2022-08-07T16:56:37.641Z,3.03
2022-08-07T16:59:46.141Z,3.30
2022-08-07T17:02:51.809Z,3.70
2022-08-07T17:06:28.441Z,3.42
2022-08-07T17:09:09.857Z,3.35
2022-08-07T17:12:01.508Z,3.42
2022-08-07T17:14:57.120Z,2.97
2022-08-07T17:17:54.057Z,3.25
2022-08-07T17:20:42.481Z,3.33
2022-08-07T17:23:34.495Z,2.97
2022-08-07T17:26:31.284Z,3.92
2022-08-07T17:30:13.939Z,3.33
2022-08-07T17:32:52.678Z,3.40
2022-08-07T17:35:54.899Z,3.60
2022-08-07T17:38:32.990Z,3.50
2022-08-07T17:42:02.968Z,3.70
2022-08-07T17:44:05.756Z,3.60
2022-08-07T17:47:05.200Z,3.53
2022-08-07T17:49:46.960Z,3.70
2022-08-07T17:53:06.730Z,3.80
2022-08-07T17:56:25.990Z,3.67
2022-08-07T17:58:57.333Z,3.70
2022-08-07T18:01:46.640Z,3.75
2022-08-07T18:04:46.322Z,4.35
2022-08-07T18:07:44.784Z,3.70
2022-08-07T18:12:07.375Z,3.80
2022-08-07T18:13:51.766Z,4.40
2022-08-07T18:16:33.455Z,3.72
2022-08-07T18:21:12.641Z,3.75
2022-08-07T18:22:14.912Z,3.70
2022-08-07T18:24:51.236Z,3.70
2022-08-07T18:27:57.840Z,3.80
2022-08-07T18:30:36.577Z,3.88
2022-08-07T18:33:32.800Z,3.78
2022-08-07T18:36:33.975Z,3.75
2022-08-07T18:40:07.919Z,3.60
2022-08-07T18:42:18.249Z,3.08
2022-08-07T18:45:42.727Z,3.33
2022-08-07T18:50:05.573Z,3.45
2022-08-07T18:52:25.647Z,3.60
2022-08-07T18:54:27.816Z,3.75
2022-08-07T18:57:30.218Z,3.30
2022-08-07T19:00:34.282Z,3.55
2022-08-07T19:03:16.024Z,3.60
2022-08-07T19:06:10.300Z,3.20
2022-08-07T19:08:58.587Z,3.30
2022-08-07T19:12:03.919Z,3.45
2022-08-07T19:14:50.842Z,3.40
2022-08-07T19:17:58.909Z,3.05
2022-08-07T19:20:29.674Z,3.20
2022-08-07T19:23:18.729Z,3.50
2022-08-07T19:26:24.083Z,3.33
2022-08-07T19:30:55.907Z,3.42
2022-08-07T19:32:10.249Z,3.25
2022-08-07T19:34:36.213Z,3.20
2022-08-07T19:37:17.050Z,3.22
2022-08-07T19:40:08.349Z,3.22
2022-08-07T19:42:45.209Z,3.08
2022-08-07T19:46:01.216Z,2.95
2022-08-07T19:48:18.697Z,2.93
2022-08-07T19:54:31.591Z,2.63
2022-08-07T19:58:04.126Z,2.60
2022-08-07T19:59:07.440Z,2.70
2022-08-07T20:01:52.910Z,2.60
2022-08-07T20:04:37.398Z,2.42
2022-08-07T20:07:10.268Z,2.53
2022-08-07T20:10:33.726Z,2.38
2022-08-07T20:12:41.268Z,2.33
2022-08-07T20:15:18.868Z,2.53
2022-08-07T20:18:01.542Z,2.20
2022-08-07T20:20:34.084Z,2.55
2022-08-07T20:23:32.744Z,2.22
2022-08-07T20:28:41.047Z,2.42
2022-08-07T20:31:21.256Z,2.25
2022-08-07T20:33:57.386Z,2.47
2022-08-07T20:36:30.604Z,2.05
2022-08-07T20:39:11.643Z,1.95
2022-08-07T20:41:53.919Z,2.63
2022-08-07T20:44:32.408Z,2.20
2022-08-07T20:47:09.213Z,2.45
2022-08-07T20:50:00.833Z,1.90
2022-08-07T20:52:52.092Z,2.15
2022-08-07T20:55:27.500Z,2.13
2022-08-07T20:58:03.592Z,1.80
2022-08-07T21:00:47.611Z,2.10
2022-08-07T21:03:25.502Z,1.92
2022-08-07T21:06:22.307Z,1.77
2022-08-07T21:08:55.897Z,1.55
2022-08-07T21:11:40.008Z,1.60
2022-08-07T21:14:48.352Z,1.30
2022-08-07T21:18:03.549Z,1.55
2022-08-07T21:20:26.745Z,1.88
2022-08-07T21:23:07.665Z,1.42
2022-08-07T21:26:10.481Z,1.40
2022-08-07T21:28:51.330Z,1.30
2022-08-07T21:32:10.810Z,1.25
2022-08-07T21:34:57.516Z,1.20
2022-08-07T21:37:57.850Z,1.40
2022-08-07T21:40:50.281Z,1.35
2022-08-07T21:43:47.329Z,1.40
2022-08-07T21:46:35.922Z,1.50
2022-08-07T21:50:00.823Z,1.80
2022-08-07T21:52:36.081Z,1.30
2022-08-07T21:55:44.057Z,1.20
2022-08-07T21:58:32.882Z,1.38
2022-08-07T22:01:08.399Z,1.20
2022-08-07T22:03:49.201Z,1.30
2022-08-07T22:06:30.516Z,1.20
2022-08-07T22:09:11.689Z,1.20
2022-08-07T22:12:04.775Z,1.00
2022-08-07T22:14:59.808Z,1.23
2022-08-07T22:20:32.167Z,1.05
2022-08-07T22:23:27.372Z,1.17
2022-08-07T22:26:14.888Z,1.20
2022-08-07T22:29:00.437Z,1.20
2022-08-07T22:34:59.570Z,3.13
2022-08-07T22:38:03.861Z,1.45
2022-08-07T22:40:59.928Z,1.23
2022-08-07T22:43:50.400Z,1.25
2022-08-07T22:47:06.372Z,1.33
2022-08-07T22:49:55.452Z,1.30
2022-08-07T22:53:04.191Z,1.15
2022-08-07T22:55:44.733Z,1.33
2022-08-07T22:58:38.749Z,1.10
2022-08-07T23:01:49.602Z,1.20
2022-08-07T23:04:58.006Z,1.10
2022-08-07T23:08:24.317Z,1.20
2022-08-07T23:11:10.444Z,0.93
2022-08-07T23:14:15.281Z,1.10
2022-08-07T23:17:15.881Z,1.02
2022-08-07T23:20:40.474Z,0.90
2022-08-07T23:24:05.086Z,1.30
2022-08-07T23:26:55.053Z,2.50
2022-08-07T23:29:43.817Z,1.17
2022-08-07T23:34:33.814Z,3.75
2022-08-07T23:36:17.493Z,1.45
2022-08-07T23:39:14.809Z,1.20
2022-08-07T23:42:37.773Z,1.20
2022-08-07T23:45:33.236Z,1.00
2022-08-07T23:48:30.661Z,1.00
2022-08-07T23:53:00.638Z,1.05
2022-08-07T23:54:46.442Z,0.80
2022-08-07T23:57:39.040Z,1.08
